• Join FlightAware (Why Join?)
  • Login
  • US Flag 
05:56AM EST


 

Airport Tracker/Info


-or-


 

Live Flight TrackerFlight Track Log ✈ N675MC ✈ 08-Sep-2013 ✈ KATL - KLIT

Flight Track Log - Related Links

Times and Time Zones

All times are in EDT time to prevent confusion due to time zone crossing. See the N675MC flight status page for this flight to view local times or setup timezone preferences in your user account.

Time Position Orientation Groundspeed Altitude Reporting Facility
EDT Latitude Longitude Course Direction KTS MPH feet Rate Location/Type
04:40PM 33.6578 -84.5106 268° West 440 506 2,800  Level Atlanta Center
04:41PM 33.6761 -84.5981 284° West 337 388 5,300 2,460 Climbing Atlanta Center
04:42PM 33.6903 -84.6831 281° West 277 319 7,800 2,400 Climbing Atlanta Center
04:43PM 33.7305 -84.9748 268° West  Level Estimated
04:43PM 33.7106 -84.7706 286° West 288 331 10,200  Level Atlanta Center
04:44PM 33.7248 -85.1143 267° West  Level FlightAware Approximate
04:44PM 33.7119 -84.8778 271° West 306 352 11,300  Level Atlanta Center
04:45PM 33.7190 -85.2538 267° West  Level FlightAware Approximate
04:45PM 33.7069 -84.9953 267° West 345 397 13,400  Level Atlanta Center
04:46PM 33.7428 -85.3905 268° West  Level Estimated
04:46PM 33.7019 -85.1200 267° West 368 423 15,200  Level Atlanta Center
04:47PM 33.7008 -85.2450 269° West 374 430 17,200 1,800 Climbing Atlanta Center
04:48PM 33.6950 -85.3872 267° West 385 443 18,900 1,500 Climbing Atlanta Center
04:49PM 33.6914 -85.5219 268° West 398 458 20,200 1,260 Climbing Atlanta Center
04:50PM 33.6917 -85.6592 270° West 409 471 21,500 1,200 Climbing Atlanta Center
04:51PM 33.6856 -85.7989 267° West 419 482 22,700 1,080 Climbing Atlanta Center
04:52PM 33.6692 -85.9358 262° West 424 488 23,700 840 Climbing Atlanta Center
04:53PM 33.6583 -86.0828 265° West 429 494 24,400 840 Climbing Atlanta Center
04:54PM 33.6494 -86.2347 266° West 447 514 25,500 900 Climbing Atlanta Center
04:55PM 33.6447 -86.3844 268° West 452 520 26,300 660 Climbing Atlanta Center
04:56PM 33.6419 -86.5167 269° West 452 520 26,900 660 Climbing Atlanta Center
04:57PM 33.6431 -86.6714 271° West 457 526 27,700 540 Climbing Atlanta Center
04:58PM 33.6458 -86.8286 271° West 462 532 28,000 120 Climbing Atlanta Center
04:59PM 33.6631 -86.9889 277° West 473 544 28,000  Level Atlanta Center
05:00PM 33.6944 -87.1472 283° West 484 557 28,000  Level Atlanta Center
05:02PM 33.7664 -87.4211 288° West 513 590 28,000  Level Memphis Center
05:03PM 33.8094 -87.5722 289° West 488 562 28,000  Level Memphis Center
05:04PM 33.8464 -87.7261 286° West 481 554 28,000  Level Memphis Center
05:05PM 33.8808 -87.8803 285° West 472 543 28,000  Level Memphis Center
05:06PM 33.9192 -88.0317 287° West 470 541 28,000  Level Memphis Center
05:07PM 33.9553 -88.1836 286° West 470 541 28,000  Level Memphis Center
05:08PM 33.9914 -88.3431 285° West 481 554 28,000  Level Memphis Center
05:09PM 34.0272 -88.4925 286° West 476 548 28,000  Level Memphis Center
05:10PM 34.0608 -88.6472 285° West 476 548 28,000  Level Memphis Center
05:11PM 34.0900 -88.8022 283° West 471 542 28,000  Level Memphis Center
05:12PM 34.1081 -88.9372 279° West 471 542 28,000  Level Memphis Center
05:13PM 34.1328 -89.0950 281° West 471 542 28,000  Level Memphis Center
05:14PM 34.1572 -89.2478 281° West 471 542 28,000  Level Memphis Center
05:15PM 34.1836 -89.4056 281° West 471 542 28,000  Level Memphis Center
05:16PM 34.2142 -89.5761 282° West 471 542 28,000  Level Memphis Center
05:17PM 34.2378 -89.7317 280° West 471 542 28,000  Level Memphis Center
05:18PM 34.2658 -89.8897 282° West 471 542 28,000  Level Memphis Center
05:19PM 34.2892 -90.0456 280° West 471 542 28,000  Level Memphis Center
05:20PM 34.3186 -90.2011 283° West 476 548 28,000  Level Memphis Center
05:21PM 34.3500 -90.3547 284° West 476 548 28,000  Level Memphis Center
05:22PM 34.3750 -90.4931 282° West 466 536 28,000 -120 Level Memphis Center
05:23PM 34.3956 -90.6517 279° West 471 542 27,800 -1,680 Descending Memphis Center
05:24PM 34.4139 -90.8053 278° West 471 542 24,700 -3,000 Descending Memphis Center
05:25PM 34.4342 -90.9564 279° West 460 529 21,800 -2,880 Descending Memphis Center
05:26PM 34.4544 -91.0978 280° West 443 510 19,000 -3,060 Descending Memphis Center
05:27PM 34.4825 -91.2442 283° West 428 493 15,700 -3,540 Descending Memphis Center
05:28PM 34.5150 -91.3781 286° West 412 474 12,000 -2,820 Descending Memphis Center
05:29PM 34.5494 -91.4944 290° West 393 452 10,100 -1,380 Descending Memphis Center
05:29PM 34.5575 -91.5400 282° West 342 394 10,000 -120 Descending Memphis Center
05:30PM 34.5714 -91.6056 284° West 362 417 10,000  Level Memphis Center
05:30PM 34.5814 -91.6411 289° West 311 358 10,000 -1,140 Level Memphis Center
05:31PM 34.6122 -91.6919 306° West 315 362 8,900 -1,740 Descending Memphis Center
05:31PM 34.6244 -91.7200 298° West 286 329 8,300 -1,440 Descending Memphis Center
05:32PM 34.6572 -91.7686 309° West 295 339 7,500 -1,620 Descending Memphis Center
05:32PM 34.6694 -91.8067 291° West 280 322 6,700 -2,040 Descending Memphis Center
05:33PM 34.6958 -91.8550 304° West 283 326 5,500 -1,680 Descending Memphis Center
05:33PM 34.7058 -91.8856 292° West 280 322 5,000 -1,200 Descending Memphis Center
05:34PM 34.7347 -91.9314 307° West 278 320 4,300 -1,140 Descending Memphis Center
05:34PM 34.7447 -91.9619 292° West 253 291 3,900 -1,200 Descending Memphis Center
05:35PM 34.7692 -92.0031 306° West 260 299 3,100 -1,020 Descending Memphis Center
05:35PM 34.7753 -92.0208 293° West 224 258 3,000 -120 Descending Memphis Center
05:36PM 34.8058 -92.0619 312° West 237 273 3,000  Level Memphis Center
05:36PM 34.8142 -92.0772 304° West 219 252 3,000 -840 Level Memphis Center
05:37PM 34.8156 -92.1253 272° West 193 222 2,200 -840 Descending Memphis Center
05:37PM 34.8069 -92.1328 216° Southwest 191 220 2,200 -840 Level Memphis Center
05:38PM 34.7794 -92.1725 230° Southwest 165 190 1,400 -1,020 Descending Memphis Center
05:38PM 34.7689 -92.1772 200° South 177 204 1,200 300 Descending Memphis Center
05:39PM 34.7986 -92.2742 290° West 165 190 1,700 -840 Climbing Memphis Center
05:39PM 34.7411 -92.2172 141° Southeast 143 165 400 -5,220 Descending Memphis Center